createdAt,value
2022-11-05T00:03:02.884Z,19.64
2022-11-05T00:06:09.440Z,19.63
2022-11-05T00:09:13.324Z,19.62
2022-11-05T00:12:27.107Z,19.63
2022-11-05T00:15:31.029Z,19.62
2022-11-05T00:18:16.264Z,19.61
2022-11-05T00:21:01.682Z,19.61
2022-11-05T00:24:05.377Z,19.62
2022-11-05T00:26:50.494Z,19.62
2022-11-05T00:29:36.092Z,19.62
2022-11-05T00:32:21.323Z,19.61
2022-11-05T00:35:07.532Z,19.59
2022-11-05T00:37:54.059Z,19.58
2022-11-05T00:40:39.424Z,19.59
2022-11-05T00:43:43.102Z,19.58
2022-11-05T00:46:28.292Z,19.59
2022-11-05T00:49:45.857Z,19.59
2022-11-05T00:52:49.677Z,19.59
2022-11-05T00:55:34.907Z,19.58
2022-11-05T00:58:21.948Z,19.58
2022-11-05T01:01:07.459Z,19.57
2022-11-05T01:03:52.753Z,19.56
2022-11-05T01:06:38.021Z,19.56
2022-11-05T01:09:23.173Z,19.56
2022-11-05T01:12:08.393Z,19.57
2022-11-05T01:14:53.631Z,19.58
2022-11-05T01:17:38.903Z,19.59
2022-11-05T01:20:24.470Z,19.59
2022-11-05T01:23:13.488Z,19.60
2022-11-05T01:25:59.438Z,19.59
2022-11-05T01:28:44.903Z,19.60
2022-11-05T01:31:30.038Z,19.61
2022-11-05T01:34:15.283Z,19.62
2022-11-05T01:37:01.138Z,19.63
2022-11-05T01:39:46.497Z,19.63
2022-11-05T01:42:33.498Z,19.63
2022-11-05T01:45:20.654Z,19.63
2022-11-05T01:48:17.019Z,19.65
2022-11-05T01:51:10.340Z,19.64
2022-11-05T01:54:02.835Z,19.65
2022-11-05T01:56:57.882Z,19.65
2022-11-05T01:59:49.298Z,19.66
2022-11-05T02:02:35.006Z,19.66
2022-11-05T02:05:20.190Z,19.66
2022-11-05T02:08:05.950Z,19.66
2022-11-05T02:10:51.951Z,19.66
2022-11-05T02:13:37.340Z,19.67
2022-11-05T02:16:43.664Z,19.67
2022-11-05T02:19:40.941Z,19.67
2022-11-05T02:22:41.519Z,19.68
2022-11-05T02:25:54.930Z,19.68
2022-11-05T02:29:26.453Z,19.67
2022-11-05T02:32:29.399Z,19.67
2022-11-05T02:35:37.453Z,19.67
2022-11-05T02:38:31.851Z,19.67
2022-11-05T02:42:04.964Z,19.67
2022-11-05T02:45:03.419Z,19.67
2022-11-05T02:48:04.097Z,19.67
2022-11-05T02:50:57.861Z,19.68
2022-11-05T02:54:01.945Z,19.68
2022-11-05T02:56:51.742Z,19.68
2022-11-05T02:59:36.880Z,19.67
2022-11-05T03:02:22.084Z,19.68
2022-11-05T03:05:07.415Z,19.68
2022-11-05T03:08:00.314Z,19.68
2022-11-05T03:11:17.706Z,19.68
2022-11-05T03:14:24.545Z,19.67
2022-11-05T03:17:27.951Z,19.68
2022-11-05T03:20:25.288Z,19.67
2022-11-05T03:23:33.811Z,19.68
2022-11-05T03:26:22.002Z,19.69
2022-11-05T03:29:16.571Z,19.68
2022-11-05T03:32:04.499Z,19.68
2022-11-05T03:34:59.939Z,19.68
2022-11-05T03:37:49.053Z,19.66
2022-11-05T03:40:37.762Z,19.69
2022-11-05T03:43:28.961Z,19.69
2022-11-05T03:46:27.878Z,19.69
2022-11-05T03:49:24.271Z,19.68
2022-11-05T03:52:18.469Z,19.68
2022-11-05T03:55:04.447Z,19.68
2022-11-05T03:57:54.003Z,19.69
2022-11-05T04:00:39.341Z,19.69
2022-11-05T04:03:24.781Z,19.69
2022-11-05T04:06:29.029Z,19.69
2022-11-05T04:09:32.922Z,19.68
2022-11-05T04:12:36.995Z,19.69
2022-11-05T04:15:22.080Z,19.69
2022-11-05T04:18:07.548Z,19.69
2022-11-05T04:21:11.420Z,19.69
2022-11-05T04:24:08.972Z,19.69
2022-11-05T04:26:54.521Z,19.68
2022-11-05T04:29:58.379Z,19.68
2022-11-05T04:32:54.569Z,19.68
2022-11-05T04:35:42.261Z,19.69
2022-11-05T04:38:27.421Z,19.69
2022-11-05T04:41:15.165Z,19.68
2022-11-05T04:44:00.652Z,19.69
2022-11-05T04:46:45.746Z,19.69
2022-11-05T04:49:31.134Z,19.69
2022-11-05T04:52:17.938Z,19.68
2022-11-05T04:55:04.593Z,19.70
2022-11-05T04:57:51.756Z,19.69
2022-11-05T05:00:37.429Z,19.69
2022-11-05T05:03:22.603Z,19.69
2022-11-05T05:06:08.472Z,19.71
2022-11-05T05:08:53.742Z,19.71
2022-11-05T05:11:39.140Z,19.71
2022-11-05T05:14:24.343Z,19.69
2022-11-05T05:17:09.870Z,19.69
2022-11-05T05:20:14.016Z,19.68
2022-11-05T05:22:59.272Z,19.68
2022-11-05T05:25:44.837Z,19.68
2022-11-05T05:28:29.914Z,19.68
2022-11-05T05:31:15.309Z,19.67
2022-11-05T05:34:00.576Z,19.67
2022-11-05T05:36:45.968Z,19.67
2022-11-05T05:39:31.225Z,19.67
2022-11-05T05:42:16.575Z,19.66
2022-11-05T05:45:01.890Z,19.68
2022-11-05T05:47:47.033Z,19.67
2022-11-05T05:50:32.114Z,19.69
2022-11-05T05:53:25.526Z,19.69
2022-11-05T05:56:11.162Z,19.71
2022-11-05T05:58:56.591Z,19.73
2022-11-05T06:01:42.160Z,19.76
2022-11-05T06:04:27.667Z,19.81
2022-11-05T06:07:13.338Z,19.85
2022-11-05T06:09:58.786Z,19.87
2022-11-05T06:12:44.055Z,19.91
2022-11-05T06:15:34.591Z,19.93
2022-11-05T06:18:21.278Z,19.94
2022-11-05T06:21:12.226Z,19.97
2022-11-05T06:23:57.406Z,19.98
2022-11-05T06:26:43.477Z,20.00
2022-11-05T06:29:28.977Z,20.00
2022-11-05T06:32:14.178Z,20.03
2022-11-05T06:34:59.683Z,20.04
2022-11-05T06:37:44.951Z,20.07
2022-11-05T06:40:30.305Z,20.09
2022-11-05T06:43:15.725Z,20.11
2022-11-05T06:46:02.879Z,20.10
2022-11-05T06:48:48.561Z,20.09
2022-11-05T06:51:33.810Z,20.13
2022-11-05T06:54:19.356Z,20.16
2022-11-05T06:57:06.157Z,20.17
2022-11-05T06:59:53.559Z,20.18
2022-11-05T07:02:42.733Z,20.19
2022-11-05T07:05:28.094Z,20.20
2022-11-05T07:08:13.782Z,20.20
2022-11-05T07:10:59.673Z,20.27
2022-11-05T07:13:46.335Z,20.28
2022-11-05T07:16:31.612Z,20.28
2022-11-05T07:19:17.242Z,20.27
2022-11-05T07:22:02.494Z,20.29
2022-11-05T07:24:50.077Z,20.31
2022-11-05T07:27:40.379Z,20.31
2022-11-05T07:30:26.634Z,20.31
2022-11-05T07:33:12.167Z,20.33
2022-11-05T07:35:58.071Z,20.35
2022-11-05T07:38:48.372Z,20.36
2022-11-05T07:41:35.569Z,20.37
2022-11-05T07:44:21.975Z,20.39
2022-11-05T07:47:08.086Z,20.41
2022-11-05T07:49:53.545Z,20.39
2022-11-05T07:52:39.389Z,20.44
2022-11-05T07:55:25.295Z,20.44
2022-11-05T07:58:12.000Z,20.44
2022-11-05T08:00:57.984Z,20.47
2022-11-05T08:03:43.481Z,20.52
2022-11-05T08:06:28.818Z,20.53
2022-11-05T08:09:14.222Z,20.52
2022-11-05T08:12:02.830Z,20.53
2022-11-05T08:14:48.778Z,20.55
2022-11-05T08:17:35.736Z,20.55
2022-11-05T08:20:21.316Z,20.57
2022-11-05T08:23:06.569Z,20.60
2022-11-05T08:25:52.213Z,20.57
2022-11-05T08:28:37.622Z,20.58
2022-11-05T08:31:22.864Z,20.62
2022-11-05T08:34:08.071Z,20.64
2022-11-05T08:36:53.452Z,20.64
2022-11-05T08:39:38.786Z,20.65
2022-11-05T08:42:24.033Z,20.63
2022-11-05T08:45:09.824Z,20.66
2022-11-05T08:48:02.884Z,20.65
2022-11-05T08:50:49.981Z,20.69
2022-11-05T08:53:35.049Z,20.67
2022-11-05T08:56:20.344Z,20.68
2022-11-05T08:59:06.112Z,20.67
2022-11-05T09:01:53.106Z,20.65
2022-11-05T09:04:38.558Z,20.65
2022-11-05T09:07:23.782Z,20.62
2022-11-05T09:10:09.412Z,20.65
2022-11-05T09:12:54.923Z,20.62
2022-11-05T09:15:41.135Z,20.62
2022-11-05T09:18:26.489Z,20.59
2022-11-05T09:21:12.186Z,20.62
2022-11-05T09:23:58.215Z,20.63
2022-11-05T09:26:44.256Z,20.61
2022-11-05T09:29:29.899Z,20.61
2022-11-05T09:32:19.391Z,20.61
2022-11-05T09:35:06.268Z,20.62
2022-11-05T09:37:54.521Z,20.62
2022-11-05T09:41:16.363Z,20.61
2022-11-05T09:44:23.848Z,20.63
2022-11-05T09:47:17.957Z,20.64
2022-11-05T09:50:09.535Z,20.66
2022-11-05T09:52:54.629Z,20.65
2022-11-05T09:55:42.632Z,20.70
2022-11-05T09:58:39.165Z,20.73
2022-11-05T10:01:30.893Z,20.79
2022-11-05T10:04:23.726Z,20.79
2022-11-05T10:07:14.482Z,20.77
2022-11-05T10:10:03.684Z,20.79
2022-11-05T10:12:57.057Z,20.78
2022-11-05T10:15:54.833Z,20.79
2022-11-05T10:18:44.411Z,20.77
2022-11-05T10:21:59.374Z,20.79
2022-11-05T10:24:37.728Z,20.79
2022-11-05T10:27:28.053Z,20.81
2022-11-05T10:30:15.104Z,20.86
2022-11-05T10:33:03.840Z,20.84
2022-11-05T10:35:57.809Z,20.82
2022-11-05T10:38:43.400Z,20.82
2022-11-05T10:41:43.149Z,20.80
2022-11-05T10:44:41.828Z,20.80
2022-11-05T10:47:40.270Z,20.80
2022-11-05T10:50:28.259Z,20.82
2022-11-05T10:53:18.422Z,20.87
2022-11-05T10:56:04.489Z,20.87
2022-11-05T10:58:56.164Z,20.83
2022-11-05T11:01:42.227Z,20.81
2022-11-05T11:04:36.520Z,20.76
2022-11-05T11:07:27.943Z,20.74
2022-11-05T11:10:23.145Z,20.77
2022-11-05T11:13:29.657Z,20.76
2022-11-05T11:16:20.334Z,20.79
2022-11-05T11:19:25.136Z,20.76
2022-11-05T11:22:18.477Z,20.78
2022-11-05T11:25:24.093Z,20.81
2022-11-05T11:28:36.074Z,20.82
2022-11-05T11:31:25.575Z,20.83
2022-11-05T11:34:29.370Z,20.81
2022-11-05T11:37:19.329Z,20.82
2022-11-05T11:40:19.554Z,20.81
2022-11-05T11:43:15.361Z,20.83
2022-11-05T11:46:07.713Z,20.83
2022-11-05T11:48:55.454Z,20.79
2022-11-05T11:51:49.675Z,20.82
2022-11-05T11:54:35.867Z,20.80
2022-11-05T11:57:27.271Z,20.83
2022-11-05T12:00:13.350Z,20.81
2022-11-05T12:03:31.034Z,20.79
2022-11-05T12:09:16.629Z,20.72
2022-11-05T12:12:11.547Z,20.70
2022-11-05T12:14:57.298Z,20.71
2022-11-05T12:17:50.674Z,20.69
2022-11-05T12:20:48.385Z,20.68
2022-11-05T12:23:57.260Z,20.71
2022-11-05T12:26:57.532Z,20.75
2022-11-05T12:32:56.075Z,20.76
2022-11-05T12:36:15.632Z,20.77
2022-11-05T12:39:07.289Z,20.81
2022-11-05T12:42:21.780Z,20.81
2022-11-05T12:45:22.648Z,20.80
2022-11-05T12:48:50.563Z,20.80
2022-11-05T12:51:51.478Z,20.80
2022-11-05T12:54:44.345Z,20.80
2022-11-05T12:57:32.169Z,20.81
2022-11-05T13:00:26.026Z,20.81
2022-11-05T13:03:17.399Z,20.79
2022-11-05T13:06:12.161Z,20.84
2022-11-05T13:09:12.694Z,20.88
2022-11-05T13:12:03.419Z,20.92
2022-11-05T13:14:56.468Z,20.91
2022-11-05T13:18:20.476Z,20.90
2022-11-05T13:21:08.757Z,20.91
2022-11-05T13:24:12.721Z,20.91
2022-11-05T13:27:19.686Z,20.92
2022-11-05T13:30:07.478Z,20.94
2022-11-05T13:33:10.661Z,20.95
2022-11-05T13:36:34.538Z,20.92
2022-11-05T13:39:26.490Z,20.91
2022-11-05T13:42:29.992Z,20.94
2022-11-05T13:45:36.136Z,20.91
2022-11-05T13:48:48.132Z,20.87
2022-11-05T13:51:45.878Z,20.83
2022-11-05T13:54:33.449Z,20.83
2022-11-05T13:57:22.031Z,20.82
2022-11-05T14:00:24.450Z,20.83
2022-11-05T14:03:21.590Z,20.86
2022-11-05T14:06:10.278Z,20.90
2022-11-05T14:09:02.806Z,20.94
2022-11-05T14:11:52.766Z,20.97
2022-11-05T14:14:48.091Z,20.95
2022-11-05T14:17:56.465Z,20.94
2022-11-05T14:20:58.349Z,20.94
2022-11-05T14:23:51.272Z,20.99
2022-11-05T14:26:36.668Z,21.02
2022-11-05T14:29:24.052Z,21.06
2022-11-05T14:32:18.852Z,21.01
2022-11-05T14:35:16.117Z,20.95
2022-11-05T14:38:02.549Z,20.92
2022-11-05T14:40:48.674Z,20.95
2022-11-05T14:43:36.204Z,20.98
2022-11-05T14:46:22.040Z,20.99
2022-11-05T14:49:17.593Z,21.03
2022-11-05T14:52:10.080Z,21.04
2022-11-05T14:54:58.549Z,21.02
2022-11-05T14:58:02.537Z,21.02
2022-11-05T15:00:48.704Z,21.01
2022-11-05T15:03:46.383Z,21.07
2022-11-05T15:06:36.553Z,21.04
2022-11-05T15:09:29.733Z,21.01
2022-11-05T15:12:34.626Z,20.95
2022-11-05T15:15:27.850Z,20.95
2022-11-05T15:18:20.898Z,20.95
2022-11-05T15:21:10.708Z,20.99
2022-11-05T15:23:56.987Z,20.99
2022-11-05T15:27:16.372Z,21.03
2022-11-05T15:30:18.870Z,21.07
2022-11-05T15:33:20.796Z,21.10
2022-11-05T15:36:29.661Z,21.13
2022-11-05T15:39:42.865Z,21.12
2022-11-05T15:42:28.476Z,21.16
2022-11-05T15:45:20.822Z,21.16
2022-11-05T15:48:19.776Z,21.18
2022-11-05T15:51:05.798Z,21.23
2022-11-05T15:56:58.984Z,21.22
2022-11-05T15:59:47.135Z,21.22
2022-11-05T16:02:35.128Z,21.23
2022-11-05T16:05:22.021Z,21.25
2022-11-05T16:08:18.958Z,21.24
2022-11-05T16:11:04.776Z,21.27
2022-11-05T16:13:51.798Z,21.27
2022-11-05T16:16:38.169Z,21.28
2022-11-05T16:19:42.602Z,21.30
2022-11-05T16:22:45.474Z,21.25
2022-11-05T16:25:42.744Z,21.28
2022-11-05T16:28:30.188Z,21.26
2022-11-05T16:31:15.859Z,21.27
2022-11-05T16:34:01.570Z,21.26
2022-11-05T16:36:47.556Z,21.30
2022-11-05T16:39:33.161Z,21.30
2022-11-05T16:42:24.893Z,21.30
2022-11-05T16:45:13.481Z,21.31
2022-11-05T16:47:59.175Z,21.29
2022-11-05T16:50:45.435Z,21.33
2022-11-05T16:53:30.656Z,21.30
2022-11-05T16:56:19.444Z,21.32
2022-11-05T16:59:04.739Z,21.36
2022-11-05T17:01:55.502Z,21.33
2022-11-05T17:04:41.108Z,21.33
2022-11-05T17:07:26.373Z,21.34
2022-11-05T17:10:11.803Z,21.35
2022-11-05T17:12:57.620Z,21.33
2022-11-05T17:15:45.047Z,21.33
2022-11-05T17:18:30.533Z,21.30
2022-11-05T17:21:16.304Z,21.26
2022-11-05T17:24:02.002Z,21.23
2022-11-05T17:26:48.046Z,21.18
2022-11-05T17:29:33.919Z,21.14
2022-11-05T17:32:19.750Z,21.21
2022-11-05T17:35:08.098Z,21.21
2022-11-05T17:37:53.940Z,21.23
2022-11-05T17:40:40.849Z,21.24
2022-11-05T17:43:26.312Z,21.23
2022-11-05T17:46:14.886Z,21.20
2022-11-05T17:49:00.684Z,21.18
2022-11-05T17:51:46.563Z,21.17
2022-11-05T17:54:31.916Z,21.15
2022-11-05T17:57:17.847Z,21.12
2022-11-05T18:00:03.960Z,21.10
2022-11-05T18:02:56.225Z,21.13
2022-11-05T18:05:44.467Z,21.14
2022-11-05T18:08:30.619Z,21.13
2022-11-05T18:11:17.480Z,21.17
2022-11-05T18:14:03.964Z,21.22
2022-11-05T18:16:50.615Z,21.15
2022-11-05T18:19:38.535Z,21.16
2022-11-05T18:22:51.112Z,21.10
2022-11-05T18:25:36.727Z,21.09
2022-11-05T18:28:23.390Z,21.07
2022-11-05T18:31:21.335Z,21.03
2022-11-05T18:34:08.146Z,21.02
2022-11-05T18:36:56.676Z,21.01
2022-11-05T18:39:42.461Z,21.02
2022-11-05T18:42:28.173Z,21.04
2022-11-05T18:45:13.490Z,21.05
2022-11-05T18:48:02.902Z,21.06
2022-11-05T18:50:49.534Z,21.09
2022-11-05T18:53:35.075Z,21.12
2022-11-05T18:56:20.418Z,21.14
2022-11-05T18:59:35.125Z,21.10
2022-11-05T19:02:15.708Z,21.10
2022-11-05T19:08:08.207Z,21.08
2022-11-05T19:10:54.626Z,21.09
2022-11-05T19:13:40.476Z,21.10
2022-11-05T19:16:29.239Z,21.10
2022-11-05T19:19:14.942Z,21.04
2022-11-05T19:22:00.149Z,21.03
2022-11-05T19:24:45.611Z,21.04
2022-11-05T19:27:31.272Z,21.04
2022-11-05T19:30:16.636Z,21.06
2022-11-05T19:33:02.586Z,21.06
2022-11-05T19:35:47.598Z,21.09
2022-11-05T19:38:33.371Z,21.07
2022-11-05T19:41:19.401Z,21.03
2022-11-05T19:44:05.058Z,21.06
2022-11-05T19:46:50.491Z,21.02
2022-11-05T19:49:35.819Z,21.02
2022-11-05T19:52:21.434Z,21.02
2022-11-05T19:55:11.957Z,21.03
2022-11-05T19:57:57.776Z,21.02
2022-11-05T20:00:43.430Z,21.04
2022-11-05T20:03:28.783Z,21.01
2022-11-05T20:06:17.414Z,21.00
2022-11-05T20:09:20.999Z,20.99
2022-11-05T20:12:08.157Z,21.00
2022-11-05T20:14:53.863Z,21.01
2022-11-05T20:17:39.495Z,21.04
2022-11-05T20:20:25.546Z,21.04
2022-11-05T20:23:11.248Z,21.03
2022-11-05T20:25:59.000Z,21.07
2022-11-05T20:28:44.434Z,21.08
2022-11-05T20:31:30.817Z,21.08
2022-11-05T20:34:16.522Z,21.06
2022-11-05T20:37:03.226Z,21.07
2022-11-05T20:39:48.811Z,21.08
2022-11-05T20:42:36.028Z,21.06
2022-11-05T20:45:21.558Z,21.06
2022-11-05T20:48:07.115Z,21.08
2022-11-05T20:50:53.621Z,21.09
2022-11-05T20:53:39.548Z,21.12
2022-11-05T20:56:28.231Z,21.12
2022-11-05T20:59:14.100Z,21.13
2022-11-05T21:01:59.565Z,21.13
2022-11-05T21:04:45.825Z,21.12
2022-11-05T21:07:31.347Z,21.10
2022-11-05T21:10:16.927Z,21.12
2022-11-05T21:13:02.275Z,21.14
2022-11-05T21:15:50.207Z,21.12
2022-11-05T21:18:38.930Z,21.13
2022-11-05T21:21:24.277Z,21.12
2022-11-05T21:24:09.466Z,21.13
2022-11-05T21:26:55.130Z,21.14
2022-11-05T21:29:40.640Z,21.11
2022-11-05T21:32:26.194Z,21.08
2022-11-05T21:35:12.323Z,21.09
2022-11-05T21:37:57.640Z,21.10
2022-11-05T21:40:43.224Z,21.10
2022-11-05T21:43:29.451Z,21.08
2022-11-05T21:46:14.773Z,21.07
2022-11-05T21:48:59.949Z,21.04
2022-11-05T21:52:03.815Z,21.07
2022-11-05T21:55:07.654Z,21.07
2022-11-05T21:58:11.563Z,21.06
2022-11-05T22:00:57.298Z,21.08
2022-11-05T22:03:42.459Z,21.10
2022-11-05T22:06:28.029Z,21.08
2022-11-05T22:09:13.116Z,21.07
2022-11-05T22:11:58.979Z,21.10
2022-11-05T22:14:44.460Z,21.09
2022-11-05T22:17:29.598Z,21.10
2022-11-05T22:20:16.086Z,21.14
2022-11-05T22:23:01.397Z,21.13
2022-11-05T22:25:46.716Z,21.14
2022-11-05T22:28:31.994Z,21.12
2022-11-05T22:31:17.525Z,21.11
2022-11-05T22:34:03.097Z,21.09
2022-11-05T22:36:48.726Z,21.13
2022-11-05T22:39:34.112Z,21.08
2022-11-05T22:42:19.318Z,21.08
2022-11-05T22:45:05.147Z,21.10
2022-11-05T22:47:50.351Z,21.12
2022-11-05T22:50:35.525Z,21.10
2022-11-05T22:53:20.780Z,21.14
2022-11-05T22:56:11.865Z,21.11
2022-11-05T22:58:58.162Z,21.11
2022-11-05T23:01:45.043Z,21.14
2022-11-05T23:04:30.623Z,21.14
2022-11-05T23:07:36.510Z,21.13
2022-11-05T23:10:40.402Z,21.12
2022-11-05T23:13:25.795Z,21.12
2022-11-05T23:16:29.634Z,21.10
2022-11-05T23:19:33.393Z,21.12
2022-11-05T23:22:42.516Z,21.08
2022-11-05T23:25:27.896Z,21.06
2022-11-05T23:28:13.960Z,21.09
2022-11-05T23:31:34.628Z,21.10
2022-11-05T23:34:19.998Z,21.10
2022-11-05T23:37:24.137Z,21.11
2022-11-05T23:40:14.885Z,21.13
2022-11-05T23:43:18.638Z,21.12
2022-11-05T23:46:22.561Z,21.10
2022-11-05T23:49:07.749Z,21.13
2022-11-05T23:51:53.263Z,21.14
2022-11-05T23:54:38.329Z,21.13
2022-11-05T23:57:23.621Z,21.12
